Time;durP1;ratioP1;P1;durP2;ratioP2;P2;SDS_P1;SDS_P2;PMS_P1;PMS_P2;Temp;Humidity;BMP_temperature;BMP_pressure;BME280_temperature;BME280_humidity;BME280_pressure;Samples;Min_cycle;Max_cycle;Signal;HPM_P1;HPM_P2
2023/08/20 00:00:52;;;;;;;6.78;4.57;;;;;;;26.72;52.24;101771.03;5036529;28;20032;-62
2023/08/20 00:03:18;;;;;;;9.50;4.43;;;;;;;26.75;52.57;101776.13;5054095;28;20029;-62
2023/08/20 00:05:43;;;;;;;4.93;3.55;;;;;;;26.78;52.71;101774.84;5053508;28;20039;-62
2023/08/20 00:08:09;;;;;;;7.80;4.75;;;;;;;26.79;52.95;101777.44;5054809;28;20028;-62
2023/08/20 00:10:34;;;;;;;10.32;5.50;;;;;;;26.82;52.39;101788.00;5054953;28;20080;-62
2023/08/20 00:13:00;;;;;;;7.95;4.82;;;;;;;26.86;52.69;101780.16;5053735;28;20060;-63
2023/08/20 00:15:28;;;;;;;7.80;4.95;;;;;;;26.89;53.22;101785.22;5053113;28;20535;-63
2023/08/20 00:17:55;;;;;;;6.68;4.70;;;;;;;26.90;53.34;101779.53;5054271;28;20108;-63
2023/08/20 00:20:21;;;;;;;9.52;4.40;;;;;;;26.92;52.93;101768.31;5054319;28;20041;-62
2023/08/20 00:22:47;;;;;;;21.13;4.70;;;;;;;26.91;52.79;101761.13;5054394;28;20047;-63
2023/08/20 00:25:13;;;;;;;9.15;4.43;;;;;;;26.92;52.24;101766.41;5054132;28;20493;-63
2023/08/20 00:27:39;;;;;;;9.18;5.03;;;;;;;26.92;52.18;101774.66;5052385;28;20033;-63
2023/08/20 00:30:05;;;;;;;4.78;4.28;;;;;;;26.90;52.79;101770.44;5052770;28;20033;-63
2023/08/20 00:32:31;;;;;;;10.82;4.90;;;;;;;26.87;52.12;101777.22;5052707;28;20143;-63
2023/08/20 00:34:56;;;;;;;6.82;4.72;;;;;;;26.84;52.45;101785.88;5052549;28;20066;-62
2023/08/20 00:37:22;;;;;;;7.53;4.55;;;;;;;26.83;53.08;101784.19;5053995;28;20033;-62
2023/08/20 00:39:47;;;;;;;11.18;6.78;;;;;;;26.83;52.08;101789.69;5052180;28;20394;-63
2023/08/20 00:42:15;;;;;;;12.23;5.75;;;;;;;26.82;53.21;101785.25;5052567;28;20033;-62
2023/08/20 00:44:44;;;;;;;8.27;6.70;;;;;;;26.82;52.46;101788.00;5054325;28;20405;-63
2023/08/20 00:47:09;;;;;;;13.65;6.30;;;;;;;26.83;53.19;101781.44;5053158;28;20040;-63
2023/08/20 00:49:35;;;;;;;10.75;6.55;;;;;;;26.83;52.34;101778.69;5052815;28;20025;-63
2023/08/20 00:52:01;;;;;;;10.57;6.93;;;;;;;26.84;52.75;101783.13;5036465;28;20404;-63
2023/08/20 00:54:27;;;;;;;10.93;7.07;;;;;;;26.80;52.83;101781.03;5054331;28;20033;-63
2023/08/20 00:56:53;;;;;;;11.68;5.97;;;;;;;26.85;52.55;101787.59;5052882;28;20045;-63
2023/08/20 00:59:18;;;;;;;11.02;5.88;;;;;;;26.85;53.22;101790.34;5052992;28;20025;-63
2023/08/20 01:01:44;;;;;;;9.60;6.60;;;;;;;26.84;53.12;101785.88;5052799;28;20563;-63
2023/08/20 01:04:09;;;;;;;13.82;6.43;;;;;;;26.83;52.73;101795.19;5053493;28;20040;-63
2023/08/20 01:07:16;;;;;;;17.08;7.50;;;;;;;26.82;53.34;101793.50;5052949;28;20029;-62
2023/08/20 01:09:53;;;;;;;19.33;7.10;;;;;;;26.81;52.58;101791.81;5024457;28;20036;-63
2023/08/20 01:12:19;;;;;;;11.32;6.75;;;;;;;26.81;53.27;101791.81;5054200;28;20029;-63
2023/08/20 01:14:44;;;;;;;13.15;7.30;;;;;;;26.83;52.73;101800.69;5054201;28;20029;-63
2023/08/20 01:17:10;;;;;;;14.43;7.43;;;;;;;26.84;52.84;101801.53;5054023;28;20525;-63
2023/08/20 01:19:36;;;;;;;11.65;7.20;;;;;;;26.88;53.56;101802.81;5053551;28;20381;-63
2023/08/20 01:22:40;;;;;;;19.30;7.80;;;;;;;26.89;53.27;101805.34;5052536;28;20079;-63
2023/08/20 01:25:16;;;;;;;14.90;6.28;;;;;;;26.89;53.65;101798.97;5035938;28;20090;-63
2023/08/20 01:28:03;;;;;;;14.93;8.25;;;;;;;26.90;52.93;101807.03;5052859;28;20033;-63
2023/08/20 01:30:30;;;;;;;12.25;7.90;;;;;;;26.88;53.54;101806.41;5053472;28;20033;-62
2023/08/20 01:32:56;;;;;;;10.82;6.72;;;;;;;26.90;53.55;101812.53;5052272;28;20041;-62
2023/08/20 01:35:24;;;;;;;14.38;7.82;;;;;;;26.90;53.36;101815.28;5035401;28;20518;-62
2023/08/20 01:37:49;;;;;;;12.93;6.95;;;;;;;26.90;53.05;101815.28;5035569;28;20036;-63
2023/08/20 01:40:15;;;;;;;13.30;7.50;;;;;;;26.90;53.30;101823.53;5052063;28;20412;-63
2023/08/20 01:42:40;;;;;;;13.02;7.65;;;;;;;26.92;53.00;101832.41;5053182;28;20377;-62
2023/08/20 01:45:08;;;;;;;20.10;8.52;;;;;;;26.90;53.28;101831.78;5051751;28;20504;-62
2023/08/20 01:47:33;;;;;;;15.88;8.40;;;;;;;26.91;53.79;101838.97;5052963;28;20033;-62
2023/08/20 01:49:59;;;;;;;13.80;6.90;;;;;;;26.92;52.98;101837.91;5051791;28;20368;-62
2023/08/20 01:52:24;;;;;;;15.70;7.25;;;;;;;26.92;52.85;101835.16;5053044;28;20404;-64
2023/08/20 01:54:50;;;;;;;18.02;7.70;;;;;;;26.90;53.42;101829.03;5051607;28;20045;-63
2023/08/20 01:57:16;;;;;;;16.30;8.40;;;;;;;26.89;52.92;101832.84;5051766;28;20029;-63
2023/08/20 01:59:41;;;;;;;11.80;7.03;;;;;;;26.83;52.99;101822.69;5035097;28;20464;-62
2023/08/20 02:02:07;;;;;;;17.10;8.15;;;;;;;26.85;53.55;101823.34;5052215;28;20128;-63
2023/08/20 02:04:32;;;;;;;13.68;8.20;;;;;;;26.83;52.75;101828.19;5052623;28;20111;-62
2023/08/20 02:06:58;;;;;;;16.52;8.70;;;;;;;26.81;52.87;101824.81;5051645;28;20068;-63
2023/08/20 02:09:24;;;;;;;15.77;8.60;;;;;;;26.81;53.11;101829.44;5051527;28;20029;-62
2023/08/20 02:11:50;;;;;;;21.67;8.27;;;;;;;26.77;53.15;101823.53;5050932;28;20496;-62
2023/08/20 02:14:15;;;;;;;14.63;8.05;;;;;;;26.76;52.62;101827.31;5053111;28;20041;-63
2023/08/20 02:16:41;;;;;;;12.63;7.60;;;;;;;26.71;52.58;101838.09;5050947;28;20492;-63
2023/08/20 02:19:07;;;;;;;11.68;7.07;;;;;;;26.68;53.12;101833.03;5051488;28;20060;-63
2023/08/20 02:21:32;;;;;;;18.48;8.73;;;;;;;26.64;53.19;101845.47;5052588;28;20056;-62
2023/08/20 02:23:58;;;;;;;15.98;7.93;;;;;;;26.59;52.60;101840.63;5049348;28;20067;-62
2023/08/20 02:26:23;;;;;;;15.07;7.38;;;;;;;26.57;53.36;101845.50;5051353;28;20492;-62
2023/08/20 02:28:49;;;;;;;15.43;7.50;;;;;;;26.53;52.74;101848.84;5052609;28;20031;-62
2023/08/20 02:31:14;;;;;;;12.95;8.35;;;;;;;26.52;52.60;101852.69;5052405;28;20032;-63
2023/08/20 02:33:39;;;;;;;20.85;8.80;;;;;;;26.49;52.50;101847.59;5051209;28;20040;-63
2023/08/20 02:36:05;;;;;;;12.68;7.97;;;;;;;26.47;53.18;101857.91;5052349;28;20029;-63
2023/08/20 02:38:30;;;;;;;13.68;8.27;;;;;;;26.42;53.27;101854.97;5051543;28;20036;-64
2023/08/20 02:40:56;;;;;;;15.10;7.65;;;;;;;26.43;52.69;101856.66;5050784;28;20037;-64
2023/08/20 02:43:21;;;;;;;13.50;6.75;;;;;;;26.38;52.45;101845.47;5051222;28;20106;-63
2023/08/20 02:45:47;;;;;;;14.82;8.48;;;;;;;26.38;52.57;101850.94;5052463;28;20033;-62
2023/08/20 02:48:14;;;;;;;13.98;7.63;;;;;;;26.34;52.99;101850.50;5054071;28;20033;-63
2023/08/20 02:50:39;;;;;;;18.15;7.65;;;;;;;26.33;52.98;101864.44;5056290;28;20037;-63
2023/08/20 02:53:05;;;;;;;13.30;8.55;;;;;;;26.29;52.58;101863.19;5052479;28;20036;-63
2023/08/20 02:55:31;;;;;;;11.38;6.90;;;;;;;26.27;52.46;101868.88;5052146;28;20029;-62
2023/08/20 02:57:56;;;;;;;20.98;8.82;;;;;;;26.27;52.53;101870.78;5052146;28;20070;-62
2023/08/20 03:00:22;;;;;;;15.65;8.07;;;;;;;26.27;52.89;101876.28;5052163;28;20041;-62
2023/08/20 03:02:47;;;;;;;13.73;7.78;;;;;;;26.24;52.81;101874.81;5050879;28;20025;-62
2023/08/20 03:05:12;;;;;;;14.85;8.55;;;;;;;26.22;52.96;101865.91;5050813;28;20033;-62
2023/08/20 03:07:38;;;;;;;19.65;8.45;;;;;;;26.25;53.09;101867.38;5034192;28;20497;-62
2023/08/20 03:10:04;;;;;;;18.17;7.80;;;;;;;26.23;52.97;101866.75;5052125;28;20092;-63
2023/08/20 03:12:30;;;;;;;14.98;8.57;;;;;;;26.22;53.17;101867.78;5051839;28;20029;-63
2023/08/20 03:14:56;;;;;;;16.13;8.60;;;;;;;26.22;52.75;101863.16;5053667;28;20036;-63
2023/08/20 03:17:21;;;;;;;16.88;7.85;;;;;;;26.20;52.72;101858.91;5055999;28;20116;-63
2023/08/20 03:19:59;;;;;;;13.68;8.02;;;;;;;26.22;52.83;101867.78;5054530;28;20060;-62
2023/08/20 03:22:26;;;;;;;18.30;9.23;;;;;;;26.21;52.95;101860.63;5054421;28;20044;-64
2023/08/20 03:24:52;;;;;;;15.88;8.15;;;;;;;26.17;52.72;101848.34;5056038;28;20029;-62
2023/08/20 03:27:18;;;;;;;15.52;8.27;;;;;;;26.19;52.96;101857.22;5037805;28;20039;-62
2023/08/20 03:29:44;;;;;;;16.80;8.23;;;;;;;26.18;52.82;101855.53;5054406;28;20115;-63
2023/08/20 03:32:10;;;;;;;17.98;8.88;;;;;;;26.15;52.67;101853.19;5054278;28;20037;-62
2023/08/20 03:34:35;;;;;;;10.95;7.18;;;;;;;26.11;52.66;101863.72;5037553;28;20040;-62
2023/08/20 03:37:01;;;;;;;12.10;8.77;;;;;;;26.09;52.29;101863.06;5054228;28;20033;-62
2023/08/20 03:39:26;;;;;;;15.02;7.20;;;;;;;26.05;52.97;101865.38;5055590;28;20029;-63
2023/08/20 03:41:52;;;;;;;16.15;7.68;;;;;;;26.01;52.62;101866.84;5053984;28;20041;-62
2023/08/20 03:44:19;;;;;;;20.23;7.43;;;;;;;25.98;52.87;101853.53;5053953;28;20128;-62
2023/08/20 03:46:44;;;;;;;11.88;7.40;;;;;;;25.92;52.68;101862.59;5055200;28;20078;-62
2023/08/20 03:49:10;;;;;;;13.63;7.93;;;;;;;25.89;52.73;101856.66;5055417;28;20025;-63
2023/08/20 03:51:35;;;;;;;14.43;7.18;;;;;;;25.85;52.22;101858.13;5055243;28;20026;-63
2023/08/20 03:54:01;;;;;;;14.90;7.78;;;;;;;25.80;52.55;101858.72;5055158;28;20511;-63
2023/08/20 03:56:27;;;;;;;14.20;7.18;;;;;;;25.78;52.76;101871.81;5053790;28;20091;-63
2023/08/20 03:58:52;;;;;;;7.82;5.95;;;;;;;25.75;52.46;101863.13;5055061;28;20451;-63
2023/08/20 04:01:18;;;;;;;13.30;7.00;;;;;;;25.70;52.39;101858.25;5053732;28;20116;-62
2023/08/20 04:03:43;;;;;;;10.40;6.10;;;;;;;25.66;52.67;101865.19;5055142;28;20550;-63
2023/08/20 04:06:09;;;;;;;9.38;6.15;;;;;;;25.63;52.49;101860.09;5053676;28;20101;-62
2023/08/20 04:08:34;;;;;;;8.48;6.85;;;;;;;25.60;52.48;101863.25;5053625;28;20033;-62
2023/08/20 04:11:01;;;;;;;13.25;7.47;;;;;;;25.57;52.48;101873.81;5054870;28;20037;-63
2023/08/20 04:13:26;;;;;;;12.80;7.75;;;;;;;25.55;52.46;101876.75;5054779;28;20040;-63
2023/08/20 04:15:51;;;;;;;15.50;7.60;;;;;;;25.53;52.89;101873.34;5054849;28;20491;-63
2023/08/20 04:18:17;;;;;;;14.07;8.25;;;;;;;25.50;52.87;101878.38;5053319;28;20127;-62
2023/08/20 04:20:42;;;;;;;11.38;7.10;;;;;;;25.47;52.26;101879.66;5053198;28;20061;-63
2023/08/20 04:23:08;;;;;;;17.45;7.90;;;;;;;25.46;52.54;101881.50;5054382;28;20049;-62
2023/08/20 04:25:34;;;;;;;15.70;7.07;;;;;;;25.46;52.33;101888.91;5053278;28;20435;-62
2023/08/20 04:27:59;;;;;;;11.57;5.93;;;;;;;25.43;52.78;101883.81;5054279;28;20033;-62
2023/08/20 04:30:24;;;;;;;9.82;5.75;;;;;;;25.40;52.84;101882.28;5054234;28;20045;-62
2023/08/20 04:32:50;;;;;;;10.48;4.97;;;;;;;25.34;52.50;101874.91;5053043;28;20401;-62
2023/08/20 04:35:16;;;;;;;5.53;4.47;;;;;;;25.35;52.63;101881.19;5054597;28;20056;-62
2023/08/20 04:37:41;;;;;;;7.20;4.25;;;;;;;25.32;52.56;101884.38;5054447;28;20059;-63
2023/08/20 04:40:07;;;;;;;6.22;4.80;;;;;;;25.27;52.64;101884.09;5036670;28;20114;-63
2023/08/20 04:42:33;;;;;;;6.13;4.68;;;;;;;25.22;51.95;101878.38;5053001;28;20405;-63
2023/08/20 04:44:58;;;;;;;8.25;4.90;;;;;;;25.21;52.26;101885.75;5053036;28;20025;-63
2023/08/20 04:47:24;;;;;;;10.88;5.95;;;;;;;25.18;52.32;101891.63;5054299;28;20505;-63
2023/08/20 04:49:50;;;;;;;12.88;6.80;;;;;;;25.16;52.20;101893.72;5052405;28;20025;-63
2023/08/20 04:52:16;;;;;;;9.23;5.75;;;;;;;25.17;52.54;101900.06;5054097;28;20036;-63
2023/08/20 04:54:41;;;;;;;13.38;6.07;;;;;;;25.18;52.41;101904.53;5052830;28;20037;-64
2023/08/20 04:57:07;;;;;;;11.50;6.80;;;;;;;25.18;52.51;101910.81;5054230;28;20036;-63
2023/08/20 04:59:32;;;;;;;11.38;5.97;;;;;;;25.21;52.22;101912.34;5036010;28;20095;-63
2023/08/20 05:01:58;;;;;;;9.60;6.15;;;;;;;25.21;52.71;101906.88;5052465;28;20392;-63
2023/08/20 05:04:23;;;;;;;9.80;6.30;;;;;;;25.22;52.62;101911.28;5053618;28;20044;-62
2023/08/20 05:06:48;;;;;;;13.45;6.78;;;;;;;25.24;52.33;101903.69;5053940;28;20128;-62
2023/08/20 05:09:15;;;;;;;8.25;5.97;;;;;;;25.26;52.21;101913.47;5052564;28;20123;-62
2023/08/20 05:11:41;;;;;;;8.57;6.22;;;;;;;25.30;52.50;101913.88;5053695;28;20029;-63
2023/08/20 05:14:06;;;;;;;11.95;7.43;;;;;;;25.34;52.32;101917.94;5052444;28;20033;-62
2023/08/20 05:16:32;;;;;;;12.35;6.55;;;;;;;25.38;52.83;101921.97;5052370;28;20062;-62
2023/08/20 05:18:57;;;;;;;11.75;7.10;;;;;;;25.45;52.19;101925.63;5053914;28;20067;-62
2023/08/20 05:21:23;;;;;;;13.88;7.72;;;;;;;25.53;52.24;101927.38;5052154;28;20028;-63
2023/08/20 05:23:48;;;;;;;13.70;7.57;;;;;;;25.60;52.11;101920.88;5035642;28;20111;-63
2023/08/20 05:26:14;;;;;;;12.77;7.60;;;;;;;25.68;52.15;101918.00;5053396;28;20048;-62
2023/08/20 05:28:39;;;;;;;13.40;7.18;;;;;;;25.76;52.69;101914.25;5021811;28;20057;-62
2023/08/20 05:31:04;;;;;;;13.68;7.13;;;;;;;25.84;52.51;101920.44;5033271;28;20105;-63
2023/08/20 05:33:30;;;;;;;11.00;7.38;;;;;;;25.93;52.00;101916.47;5033661;28;20021;-62
2023/08/20 05:35:55;;;;;;;10.45;7.13;;;;;;;26.03;52.36;101913.34;5031010;28;20487;-62
2023/08/20 05:38:20;;;;;;;12.35;7.35;;;;;;;26.14;51.90;101920.16;5033324;28;20045;-62
2023/08/20 05:40:46;;;;;;;14.65;7.80;;;;;;;26.24;52.20;101920.66;5031770;28;20492;-62
2023/08/20 05:43:11;;;;;;;13.63;7.00;;;;;;;26.32;52.41;101923.22;5031920;28;20057;-64
2023/08/20 05:45:36;;;;;;;12.15;7.07;;;;;;;26.44;51.97;101929.78;5032030;28;20036;-62
2023/08/20 05:48:02;;;;;;;16.73;7.38;;;;;;;26.55;52.02;101923.69;5031613;28;20029;-62
2023/08/20 05:50:27;;;;;;;12.18;7.68;;;;;;;26.67;52.00;101924.78;5031836;28;20397;-62
2023/08/20 05:52:53;;;;;;;14.60;8.27;;;;;;;26.79;52.29;101923.16;5032925;28;20017;-62
2023/08/20 05:55:19;;;;;;;14.13;7.60;;;;;;;26.93;52.12;101927.63;5033342;28;20113;-62
2023/08/20 05:57:44;;;;;;;13.30;7.60;;;;;;;27.03;51.47;101928.06;5031623;28;20029;-62
2023/08/20 06:00:10;;;;;;;14.00;8.43;;;;;;;27.18;51.92;101925.97;5015117;28;20032;-63
2023/08/20 06:02:36;;;;;;;15.23;7.97;;;;;;;27.32;51.73;101918.53;5031987;28;20022;-62
2023/08/20 06:05:04;;;;;;;18.77;7.82;;;;;;;27.50;51.09;101918.75;5031583;28;20108;-62
2023/08/20 06:07:30;;;;;;;13.65;8.05;;;;;;;27.68;51.27;101921.72;5031706;28;20048;-62
2023/08/20 06:09:57;;;;;;;14.30;7.47;;;;;;;27.88;50.99;101927.19;5031810;28;20431;-62
2023/08/20 06:12:23;;;;;;;12.40;7.93;;;;;;;28.06;51.51;101927.34;5033127;28;20021;-62
2023/08/20 06:14:49;;;;;;;15.80;8.15;;;;;;;28.25;50.78;101934.69;5031852;28;20358;-63
2023/08/20 06:17:14;;;;;;;9.65;6.78;;;;;;;28.41;50.52;101932.50;5031640;28;20470;-63
2023/08/20 06:19:39;;;;;;;10.85;7.20;;;;;;;28.56;50.62;101935.84;5032693;28;20025;-62
2023/08/20 06:22:05;;;;;;;13.57;6.72;;;;;;;28.70;50.17;101932.78;5032710;28;20028;-62
2023/08/20 06:24:30;;;;;;;19.17;7.72;;;;;;;28.84;50.55;101933.53;5032650;28;20017;-62
2023/08/20 06:26:57;;;;;;;15.02;6.88;;;;;;;28.97;50.25;101933.47;5031398;28;20032;-62
2023/08/20 06:29:22;;;;;;;15.85;7.05;;;;;;;29.14;49.99;101936.53;5031593;28;20485;-63
2023/08/20 06:31:48;;;;;;;11.82;6.53;;;;;;;29.26;49.87;101932.84;5031688;28;20042;-62
2023/08/20 06:34:14;;;;;;;12.07;6.05;;;;;;;29.42;49.62;101937.81;5031515;28;25398;-63
2023/08/20 06:36:39;;;;;;;14.25;6.53;;;;;;;29.59;49.56;101934.47;5032889;28;20128;-63
2023/08/20 06:39:05;;;;;;;14.40;7.20;;;;;;;29.73;49.64;101925.78;5032873;28;20053;-63
2023/08/20 06:41:31;;;;;;;15.23;6.68;;;;;;;29.86;48.88;101928.47;5032404;28;20038;-63
2023/08/20 06:43:56;;;;;;;15.88;6.18;;;;;;;30.00;49.01;101920.88;5031617;28;20477;-62
2023/08/20 06:46:21;;;;;;;17.42;6.75;;;;;;;30.10;48.89;101918.38;5031434;28;20116;-63
2023/08/20 06:48:47;;;;;;;12.80;6.78;;;;;;;30.24;48.69;101919.06;5034269;28;20033;-63
2023/08/20 06:51:13;;;;;;;10.85;7.00;;;;;;;30.37;48.24;101925.31;5036466;28;20029;-63
2023/08/20 06:53:40;;;;;;;13.93;6.45;;;;;;;30.52;48.38;101922.13;5035407;28;20416;-62
2023/08/20 06:56:06;;;;;;;12.00;6.78;;;;;;;30.68;47.80;101917.88;5035522;28;20485;-63
2023/08/20 06:58:31;;;;;;;14.02;7.32;;;;;;;30.83;47.43;101912.72;5035405;28;20484;-63
2023/08/20 07:01:06;;;;;;;9.43;6.50;;;;;;;31.01;47.72;101921.84;5035240;28;20083;-63
2023/08/20 07:03:41;;;;;;;11.35;6.20;;;;;;;31.19;47.28;101926.44;5035842;28;20033;-63
2023/08/20 07:06:09;;;;;;;10.55;6.25;;;;;;;31.37;46.81;101922.72;5037073;28;20033;-63
2023/08/20 07:08:34;;;;;;;13.13;6.10;;;;;;;31.52;46.96;101918.41;5042099;28;20025;-63
2023/08/20 07:11:00;;;;;;;11.73;6.93;;;;;;;31.69;46.79;101919.38;5042396;28;20029;-63
2023/08/20 07:13:25;;;;;;;9.43;6.15;;;;;;;31.86;46.37;101921.41;5042912;28;20399;-62
2023/08/20 07:15:50;;;;;;;9.35;6.10;;;;;;;32.07;46.15;101920.81;5042790;28;20132;-63
2023/08/20 07:18:16;;;;;;;10.88;6.32;;;;;;;32.22;45.32;101923.88;5044682;28;20095;-62
2023/08/20 07:20:43;;;;;;;9.60;5.43;;;;;;;32.38;45.63;101917.59;5036724;28;20091;-62
2023/08/20 07:23:09;;;;;;;11.60;5.95;;;;;;;32.58;45.76;101931.88;5036054;28;20032;-63
2023/08/20 07:25:36;;;;;;;15.43;7.30;;;;;;;32.67;44.75;101932.31;5034879;28;20060;-62
2023/08/20 07:28:02;;;;;;;10.55;5.22;;;;;;;32.76;44.15;101933.59;5035020;28;20029;-62
2023/08/20 07:30:27;;;;;;;10.07;5.35;;;;;;;32.94;45.07;101927.00;5034976;28;20104;-63
2023/08/20 07:32:53;;;;;;;10.93;4.60;;;;;;;33.14;44.26;101938.50;5034761;28;20025;-62
2023/08/20 07:35:18;;;;;;;11.57;5.72;;;;;;;33.34;44.10;101927.69;5035651;28;20034;-63
2023/08/20 07:37:44;;;;;;;9.70;5.65;;;;;;;33.55;43.67;101935.28;5034271;28;20056;-62
2023/08/20 07:40:10;;;;;;;15.68;5.57;;;;;;;33.71;42.99;101926.09;5034383;28;20037;-63
2023/08/20 07:42:36;;;;;;;10.23;4.63;;;;;;;33.90;43.78;101921.91;5035712;28;20061;-63
2023/08/20 07:45:02;;;;;;;6.95;4.13;;;;;;;34.02;42.83;101910.69;5034402;28;20033;-62
2023/08/20 07:47:28;;;;;;;11.68;5.07;;;;;;;34.25;43.04;101923.53;5034610;28;20032;-63
2023/08/20 07:49:54;;;;;;;10.48;4.90;;;;;;;34.41;42.85;101926.22;5034302;28;20109;-63
2023/08/20 07:52:20;;;;;;;9.52;4.22;;;;;;;34.59;42.38;101919.50;5034162;28;20116;-63
2023/08/20 07:54:45;;;;;;;12.30;4.70;;;;;;;34.76;42.58;101924.97;5034044;28;20044;-63
2023/08/20 07:57:10;;;;;;;9.57;4.55;;;;;;;34.94;42.04;101917.06;5035390;28;20029;-63
2023/08/20 07:59:36;;;;;;;12.23;5.95;;;;;;;35.10;42.27;101915.25;5034585;28;20026;-63
2023/08/20 08:02:01;;;;;;;8.27;5.07;;;;;;;35.25;41.67;101917.34;5035423;28;20038;-63
2023/08/20 08:04:27;;;;;;;16.13;5.97;;;;;;;35.38;41.09;101922.47;5035482;28;20061;-62
2023/08/20 08:06:52;;;;;;;10.13;3.95;;;;;;;35.52;40.96;101930.09;5033755;28;20033;-63
2023/08/20 08:09:26;;;;;;;7.88;4.20;;;;;;;35.64;40.39;101938.31;5017270;28;20072;-63
2023/08/20 08:11:51;;;;;;;8.82;4.40;;;;;;;35.78;40.47;101933.94;5033758;28;20382;-63
2023/08/20 08:14:17;;;;;;;7.97;4.05;;;;;;;35.92;39.41;101935.13;5034964;28;20045;-63
2023/08/20 08:16:42;;;;;;;6.88;3.50;;;;;;;36.03;39.99;101930.47;5035003;28;20038;-62
2023/08/20 08:19:08;;;;;;;13.77;4.25;;;;;;;36.17;39.81;101935.28;5035179;28;20036;-62
2023/08/20 08:21:33;;;;;;;12.02;4.43;;;;;;;36.33;39.81;101936.16;5016910;28;20505;-63
2023/08/20 08:23:58;;;;;;;12.75;6.28;;;;;;;36.51;39.43;101938.50;5034869;28;20026;-62
2023/08/20 08:26:24;;;;;;;8.02;5.07;;;;;;;36.63;39.42;101933.47;5034967;28;20056;-62
2023/08/20 08:28:49;;;;;;;13.68;5.72;;;;;;;36.79;39.31;101939.97;5033600;28;20037;-62
2023/08/20 08:31:14;;;;;;;12.07;4.28;;;;;;;36.93;38.79;101946.69;5034864;28;20486;-63
2023/08/20 08:33:40;;;;;;;7.30;3.88;;;;;;;37.08;38.82;101951.47;5034623;28;20030;-63
2023/08/20 08:36:05;;;;;;;7.35;3.65;;;;;;;37.21;38.42;101948.97;5024893;28;20107;-63
2023/08/20 08:38:31;;;;;;;8.07;4.40;;;;;;;37.41;38.58;101952.88;5046067;28;20025;-63
2023/08/20 08:40:57;;;;;;;8.68;4.20;;;;;;;37.58;38.54;101957.06;5053149;28;20408;-63
2023/08/20 08:43:22;;;;;;;10.13;4.90;;;;;;;37.74;37.54;101952.31;5053153;28;20033;-63
2023/08/20 08:45:48;;;;;;;10.43;4.97;;;;;;;37.86;37.06;101950.00;5053131;28;20036;-63
2023/08/20 08:48:14;;;;;;;14.00;4.80;;;;;;;38.00;37.65;101956.72;5036461;28;20447;-63
2023/08/20 08:50:39;;;;;;;16.50;4.95;;;;;;;38.09;37.06;101955.00;5053223;28;20086;-63
2023/08/20 08:53:06;;;;;;;12.75;4.63;;;;;;;38.23;36.62;101967.28;5053024;28;20041;-63
2023/08/20 08:55:31;;;;;;;9.07;4.07;;;;;;;38.35;36.91;101967.84;5054182;28;20036;-63
2023/08/20 08:57:57;;;;;;;12.98;4.50;;;;;;;38.51;36.84;101956.53;5054114;28;20029;-63
2023/08/20 09:00:22;;;;;;;8.98;4.20;;;;;;;38.65;35.67;101951.97;5051950;28;20064;-62
2023/08/20 09:02:47;;;;;;;13.52;4.75;;;;;;;38.77;36.36;101947.72;5054099;28;20029;-63
2023/08/20 09:05:14;;;;;;;12.73;4.93;;;;;;;38.90;36.52;101949.03;5053705;28;20041;-63
2023/08/20 09:07:44;;;;;;;12.60;5.50;;;;;;;39.02;35.58;101952.31;5052073;28;20111;-63
2023/08/20 09:10:09;;;;;;;9.70;5.78;;;;;;;39.14;35.28;101954.75;5053685;28;20496;-63
2023/08/20 09:12:35;;;;;;;12.98;5.57;;;;;;;39.23;35.43;101953.84;5053741;28;20037;-63
2023/08/20 09:15:01;;;;;;;9.73;4.32;;;;;;;39.30;35.80;101951.56;5052280;28;20036;-64
2023/08/20 09:17:27;;;;;;;12.27;6.72;;;;;;;39.43;35.12;101948.06;5053935;28;20037;-63
2023/08/20 09:19:56;;;;;;;10.95;5.63;;;;;;;39.51;34.93;101947.41;5052727;28;20037;-63
2023/08/20 09:22:22;;;;;;;9.35;6.28;;;;;;;39.66;35.60;101952.06;5052408;28;20594;-63
2023/08/20 09:24:52;;;;;;;10.55;6.07;;;;;;;39.76;34.62;101956.75;5053849;28;20037;-63
2023/08/20 09:27:18;;;;;;;12.07;5.90;;;;;;;39.80;34.67;101963.44;5052241;28;20116;-63
2023/08/20 09:29:43;;;;;;;10.40;6.22;;;;;;;39.90;34.69;101963.31;5053534;28;20120;-63
2023/08/20 09:32:14;;;;;;;13.40;6.22;;;;;;;39.99;34.79;101956.75;5053482;28;20033;-63
2023/08/20 09:34:39;;;;;;;11.90;6.93;;;;;;;40.09;35.04;101955.84;5052286;28;20044;-63
2023/08/20 09:37:08;;;;;;;12.40;6.05;;;;;;;40.17;34.84;101957.97;5035492;28;20033;-63
2023/08/20 09:39:34;;;;;;;7.90;6.03;;;;;;;40.27;34.19;101951.38;5052340;28;20029;-63
2023/08/20 09:41:59;;;;;;;9.65;5.13;;;;;;;40.31;34.11;101953.31;5053026;28;20056;-63
2023/08/20 09:44:28;;;;;;;7.90;4.18;;;;;;;40.46;33.94;101958.69;5053399;28;20505;-63
2023/08/20 09:46:53;;;;;;;7.82;4.28;;;;;;;40.59;34.13;101951.53;5053430;28;20044;-63
2023/08/20 09:49:19;;;;;;;11.57;4.88;;;;;;;40.87;33.75;101960.97;5052227;28;20029;-63
2023/08/20 09:51:48;;;;;;;11.35;5.28;;;;;;;41.25;33.26;101956.97;5052220;28;20496;-63
2023/08/20 09:54:20;;;;;;;9.38;6.03;;;;;;;41.84;32.80;101956.22;5052333;28;20393;-63
2023/08/20 09:56:51;;;;;;;12.13;5.43;;;;;;;42.68;31.88;101957.56;5053266;28;20040;-63
2023/08/20 09:59:17;;;;;;;7.55;4.07;;;;;;;44.25;30.73;101956.28;5051695;28;20404;-63
2023/08/20 10:01:42;;;;;;;9.88;4.75;;;;;;;45.72;28.64;101961.63;5052885;28;20033;-63
2023/08/20 10:04:09;;;;;;;8.00;4.30;;;;;;;45.55;29.01;101947.47;5051516;28;20043;-63
2023/08/20 10:06:35;;;;;;;5.88;3.83;;;;;;;45.02;29.33;101953.56;5051197;28;20124;-64
2023/08/20 10:09:02;;;;;;;5.43;4.05;;;;;;;44.61;29.85;101948.38;5052584;28;20059;-63
2023/08/20 10:11:27;;;;;;;6.85;4.13;;;;;;;44.34;29.80;101945.78;5051887;28;20032;-64
2023/08/20 10:13:53;;;;;;;6.88;4.03;;;;;;;44.24;29.82;101948.94;5051502;28;20029;-64
2023/08/20 10:16:23;;;;;;;5.50;3.75;;;;;;;44.21;29.63;101950.44;5052850;28;20044;-64
2023/08/20 10:18:49;;;;;;;9.73;4.60;;;;;;;44.27;29.45;101948.28;5051776;28;20385;-63
2023/08/20 10:21:14;;;;;;;5.93;3.70;;;;;;;44.36;29.58;101946.31;5051394;28;20021;-63
2023/08/20 10:23:42;;;;;;;8.55;3.78;;;;;;;44.41;29.29;101949.00;5050998;28;20021;-63
2023/08/20 10:26:09;;;;;;;9.05;4.20;;;;;;;44.49;29.14;101951.00;5035456;28;20021;-63
2023/08/20 10:28:35;;;;;;;8.15;4.53;;;;;;;44.61;28.81;101954.03;5052879;28;20021;-64
2023/08/20 10:31:08;;;;;;;4.40;2.97;;;;;;;44.82;28.77;101954.19;5051204;28;20082;-62
2023/08/20 10:33:56;;;;;;;8.50;3.17;;;;;;;45.09;28.55;101954.72;5052529;28;20396;-63
2023/08/20 10:36:28;;;;;;;5.22;3.47;;;;;;;45.27;28.84;101958.38;5051578;28;20044;-62
2023/08/20 10:38:57;;;;;;;;;;;;;;;45.44;28.73;101954.69;5053408;28;20039;-63
2023/08/20 10:41:27;;;;;;;5.75;2.63;;;;;;;45.54;28.62;101957.13;5051502;28;20043;-63
2023/08/20 10:43:53;;;;;;;11.23;3.58;;;;;;;45.62;28.26;101956.31;5051742;28;20055;-63
2023/08/20 10:46:30;;;;;;;5.88;3.00;;;;;;;45.72;27.90;101955.97;5052883;28;20096;-63
2023/08/20 10:49:06;;;;;;;4.65;3.15;;;;;;;45.87;27.83;101952.56;5051712;28;20048;-64
2023/08/20 10:51:36;;;;;;;4.20;2.60;;;;;;;46.00;27.66;101947.81;5052839;28;20036;-64
2023/08/20 10:54:02;;;;;;;5.38;3.22;;;;;;;46.15;27.34;101956.59;5050499;28;20033;-64
2023/08/20 10:56:58;;;;;;;5.20;2.40;;;;;;;46.29;27.20;101955.53;5051512;28;20033;-64
2023/08/20 10:59:31;;;;;;;3.05;2.35;;;;;;;46.37;27.36;101954.66;5034870;28;20120;-64
2023/08/20 11:01:58;;;;;;;5.25;3.05;;;;;;;46.46;27.00;101946.94;5052852;28;20087;-64
2023/08/20 11:04:27;;;;;;;6.15;2.33;;;;;;;46.57;26.61;101960.34;5052589;28;20504;-64
2023/08/20 11:06:54;;;;;;;5.28;2.25;;;;;;;46.67;26.34;101948.59;5051324;28;20041;-64
2023/08/20 11:09:24;;;;;;;6.38;1.92;;;;;;;46.72;26.36;101956.06;5051101;28;20032;-64
2023/08/20 11:11:50;;;;;;;6.05;2.65;;;;;;;46.76;26.38;101952.25;5050303;28;20044;-65
2023/08/20 11:14:18;;;;;;;7.05;2.30;;;;;;;46.83;25.93;101940.31;5034339;28;20029;-64
2023/08/20 11:16:44;;;;;;;3.17;1.65;;;;;;;46.92;26.16;101943.91;5052196;28;20029;-64